Time;durP1;ratioP1;P1;durP2;ratioP2;P2;SDS_P1;SDS_P2;PMS_P1;PMS_P2;Temp;Humidity;BMP_temperature;BMP_pressure;BME280_temperature;BME280_humidity;BME280_pressure;Samples;Min_cycle;Max_cycle;Signal;HPM_P1;HPM_P2
2022/10/21 00:01:37;;;;;;;11.80;8.43;;;11.40;99.90;;;;;;5031435;28;20141;-75
2022/10/21 00:04:03;;;;;;;11.30;7.88;;;11.50;99.90;;;;;;5031007;28;20060;-74
2022/10/21 00:06:29;;;;;;;11.57;8.45;;;11.50;99.90;;;;;;5030775;28;20053;-75
2022/10/21 00:08:55;;;;;;;13.40;8.20;;;11.50;99.90;;;;;;5031095;28;20095;-75
2022/10/21 00:11:20;;;;;;;11.80;7.80;;;11.50;99.90;;;;;;5030611;28;20057;-75
2022/10/21 00:13:46;;;;;;;13.98;8.05;;;11.50;99.90;;;;;;5029137;28;20045;-75
2022/10/21 00:16:15;;;;;;;12.07;8.00;;;11.50;99.90;;;;;;4993712;28;20124;-75
2022/10/21 00:18:43;;;;;;;13.60;8.00;;;11.50;99.90;;;;;;5011033;28;20053;-74
2022/10/21 00:21:12;;;;;;;11.63;8.45;;;11.50;99.90;;;;;;5011103;28;20104;-75
2022/10/21 00:23:38;;;;;;;12.23;9.20;;;11.50;99.90;;;;;;5011124;28;20136;-75
2022/10/21 00:26:04;;;;;;;10.77;8.05;;;11.40;99.90;;;;;;5010262;28;20130;-74
2022/10/21 00:28:30;;;;;;;10.55;7.75;;;11.50;99.90;;;;;;4977494;28;20473;-75
2022/10/21 00:30:56;;;;;;;12.38;8.15;;;11.50;99.90;;;;;;5010934;28;20145;-75
2022/10/21 00:33:23;;;;;;;10.52;7.82;;;11.40;99.90;;;;;;5011100;28;20145;-75
2022/10/21 00:35:58;;;;;;;11.77;7.78;;;11.50;99.90;;;;;;5010801;28;20064;-75
2022/10/21 00:38:24;;;;;;;12.73;8.27;;;11.50;99.90;;;;;;4993580;28;20399;-74
2022/10/21 00:40:50;;;;;;;11.30;7.32;;;11.50;99.90;;;;;;5011031;28;20046;-74
2022/10/21 00:43:16;;;;;;;15.30;8.85;;;11.50;99.90;;;;;;5010913;28;20092;-75
2022/10/21 00:45:43;;;;;;;12.20;7.47;;;11.50;99.90;;;;;;5010959;28;20045;-75
2022/10/21 00:48:19;;;;;;;13.35;8.20;;;11.50;99.90;;;;;;5010901;28;20053;-74
2022/10/21 00:50:49;;;;;;;11.73;8.20;;;11.50;99.90;;;;;;5014533;28;20057;-74
2022/10/21 00:53:15;;;;;;;10.25;7.38;;;11.50;99.90;;;;;;5014491;28;20050;-75
2022/10/21 00:55:49;;;;;;;10.32;7.10;;;11.40;99.90;;;;;;4996713;28;20153;-75
2022/10/21 00:58:17;;;;;;;17.20;8.15;;;11.40;99.90;;;;;;5014237;28;20104;-75
2022/10/21 01:00:43;;;;;;;11.80;7.38;;;11.40;99.90;;;;;;5014155;28;20111;-74
2022/10/21 01:03:09;;;;;;;11.30;7.57;;;11.30;99.90;;;;;;5013949;28;20053;-75
2022/10/21 01:05:38;;;;;;;11.27;7.55;;;11.30;99.90;;;;;;5014109;28;20046;-76
2022/10/21 01:08:04;;;;;;;11.98;7.18;;;11.30;99.90;;;;;;5014146;28;20053;-75
2022/10/21 01:10:29;;;;;;;13.18;8.38;;;11.30;99.90;;;;;;5013864;28;20054;-75
2022/10/21 01:13:12;;;;;;;11.45;7.85;;;11.30;99.90;;;;;;4996775;28;20050;-75
2022/10/21 01:15:53;;;;;;;12.02;8.32;;;11.30;99.90;;;;;;5031024;28;20041;-75
2022/10/21 01:18:54;;;;;;;11.43;7.57;;;11.30;99.90;;;;;;5034137;28;20057;-75
2022/10/21 01:21:30;;;;;;;10.57;7.80;;;11.30;99.90;;;;;;4998601;28;20054;-75
2022/10/21 01:24:14;;;;;;;12.00;8.63;;;11.30;99.90;;;;;;4993995;28;20081;-75
2022/10/21 01:26:45;;;;;;;12.80;7.60;;;11.30;99.90;;;;;;4976145;28;20145;-75
2022/10/21 01:30:07;;;;;;;10.90;7.53;;;11.40;99.90;;;;;;4994200;28;20186;-75
2022/10/21 01:32:45;;;;;;;10.30;7.07;;;11.40;99.90;;;;;;4969845;28;20491;-75
2022/10/21 01:35:38;;;;;;;11.50;7.25;;;11.40;99.90;;;;;;4994192;28;20081;-75
2022/10/21 01:38:15;;;;;;;11.55;7.75;;;11.40;99.90;;;;;;4994247;28;20058;-75
2022/10/21 01:40:41;;;;;;;10.73;7.72;;;11.40;99.90;;;;;;4993996;28;20451;-75
2022/10/21 01:43:19;;;;;;;10.85;7.10;;;11.40;99.90;;;;;;4994292;28;20137;-75
2022/10/21 01:45:50;;;;;;;10.82;7.30;;;11.40;99.90;;;;;;5033105;28;20123;-75
2022/10/21 01:48:27;;;;;;;10.98;6.68;;;11.40;99.90;;;;;;5033278;28;20569;-75
2022/10/21 01:50:58;;;;;;;9.80;6.25;;;11.30;99.90;;;;;;5033100;28;20122;-75
2022/10/21 01:53:28;;;;;;;10.40;6.63;;;11.30;99.90;;;;;;5033402;28;20049;-75
2022/10/21 01:55:56;;;;;;;12.07;7.68;;;11.20;99.90;;;;;;5015444;28;20064;-75
2022/10/21 01:58:26;;;;;;;12.45;8.15;;;11.20;99.90;;;;;;5032689;28;20085;-75
2022/10/21 02:00:55;;;;;;;10.43;6.50;;;11.30;99.90;;;;;;5014180;28;20469;-75
2022/10/21 02:03:24;;;;;;;10.32;7.22;;;11.20;99.90;;;;;;5015106;28;20482;-76
2022/10/21 02:05:50;;;;;;;11.57;7.43;;;11.20;99.90;;;;;;5015327;28;20057;-75
2022/10/21 02:08:16;;;;;;;12.90;7.47;;;11.20;99.90;;;;;;5032870;28;20479;-76
2022/10/21 02:10:51;;;;;;;11.02;7.63;;;11.40;99.90;;;;;;4998912;28;20486;-75
2022/10/21 02:13:23;;;;;;;13.73;7.35;;;11.40;99.90;;;;;;5014925;28;20482;-76
2022/10/21 02:15:52;;;;;;;12.07;7.68;;;11.50;99.90;;;;;;4996764;28;20092;-75
2022/10/21 02:18:22;;;;;;;13.45;8.30;;;11.50;99.90;;;;;;4995360;28;20046;-76
2022/10/21 02:20:53;;;;;;;11.60;7.75;;;11.60;99.90;;;;;;5012794;28;20058;-75
2022/10/21 02:23:26;;;;;;;12.93;8.07;;;11.70;99.90;;;;;;5012835;28;20058;-75
2022/10/21 02:25:52;;;;;;;13.82;8.32;;;11.80;99.90;;;;;;5010637;28;20053;-76
2022/10/21 02:28:19;;;;;;;11.60;8.02;;;11.80;99.90;;;;;;5012304;28;20127;-75
2022/10/21 02:30:59;;;;;;;14.93;8.75;;;11.90;99.90;;;;;;5012691;28;20049;-75
2022/10/21 02:34:03;;;;;;;15.48;8.23;;;12.00;99.90;;;;;;5012716;28;20058;-75
2022/10/21 02:36:53;;;;;;;11.10;7.97;;;12.00;99.90;;;;;;5012299;28;20057;-76
2022/10/21 02:39:31;;;;;;;14.40;8.90;;;12.00;99.90;;;;;;5012558;28;20057;-76
2022/10/21 02:41:58;;;;;;;11.93;8.43;;;12.00;99.90;;;;;;5012498;28;20050;-76
2022/10/21 02:44:24;;;;;;;12.15;9.00;;;12.10;99.90;;;;;;5003440;28;20067;-76
2022/10/21 02:46:51;;;;;;;12.82;8.43;;;12.10;99.90;;;;;;5031971;28;20048;-75
2022/10/21 02:49:16;;;;;;;12.57;8.00;;;12.10;99.90;;;;;;5032076;28;20053;-76
2022/10/21 02:51:43;;;;;;;11.27;7.88;;;12.10;99.90;;;;;;5032054;28;20052;-76
2022/10/21 02:54:09;;;;;;;10.55;7.72;;;12.10;99.90;;;;;;5014142;28;20057;-76
2022/10/21 02:56:34;;;;;;;12.68;8.30;;;12.10;99.90;;;;;;5031150;28;20048;-76
2022/10/21 02:59:00;;;;;;;13.90;8.20;;;12.10;99.90;;;;;;5014260;28;20045;-76
2022/10/21 03:01:26;;;;;;;13.13;8.27;;;12.10;99.90;;;;;;5031848;28;20053;-76
2022/10/21 03:03:52;;;;;;;13.20;7.43;;;12.10;99.90;;;;;;5031724;28;20049;-76
2022/10/21 03:06:18;;;;;;;14.27;8.18;;;12.10;99.90;;;;;;5031763;28;20053;-75
2022/10/21 03:08:43;;;;;;;13.40;8.27;;;12.10;99.90;;;;;;5031630;28;20045;-76
2022/10/21 03:11:09;;;;;;;13.95;8.63;;;12.10;99.90;;;;;;5031370;28;20061;-75
2022/10/21 03:13:34;;;;;;;11.90;7.82;;;12.20;99.90;;;;;;5031370;28;20108;-77
2022/10/21 03:16:00;;;;;;;11.70;8.48;;;12.20;99.90;;;;;;5011845;28;20042;-75
2022/10/21 03:18:26;;;;;;;12.43;7.70;;;12.20;99.90;;;;;;5011770;28;20403;-76
2022/10/21 03:20:51;;;;;;;11.98;7.72;;;12.20;99.90;;;;;;5011762;28;20437;-75
2022/10/21 03:23:18;;;;;;;11.48;7.93;;;12.10;99.90;;;;;;5011821;28;20045;-75
2022/10/21 03:25:44;;;;;;;14.55;8.43;;;12.10;99.90;;;;;;4990706;28;20054;-76
2022/10/21 03:28:10;;;;;;;12.25;7.55;;;12.10;99.90;;;;;;4991610;28;20054;-76
2022/10/21 03:30:36;;;;;;;11.48;7.70;;;12.10;99.90;;;;;;4992072;28;20053;-76
2022/10/21 03:33:02;;;;;;;10.50;7.85;;;12.20;99.90;;;;;;4991929;28;20050;-76
2022/10/21 03:35:28;;;;;;;12.38;8.13;;;12.10;99.90;;;;;;4991648;28;20042;-75
2022/10/21 03:37:53;;;;;;;11.95;8.43;;;12.10;99.90;;;;;;4991992;28;20514;-75
2022/10/21 03:40:19;;;;;;;11.80;7.55;;;12.10;99.90;;;;;;4992059;28;20054;-76
2022/10/21 03:42:45;;;;;;;11.43;8.02;;;12.10;99.90;;;;;;4991850;28;20086;-76
2022/10/21 03:45:11;;;;;;;11.23;7.32;;;12.10;99.90;;;;;;5006580;28;20121;-75
2022/10/21 03:47:37;;;;;;;12.07;7.85;;;12.10;99.90;;;;;;5011524;28;20045;-75
2022/10/21 03:50:03;;;;;;;11.48;7.63;;;12.10;99.90;;;;;;5011289;28;20058;-76
2022/10/21 03:52:29;;;;;;;9.75;7.38;;;12.00;99.90;;;;;;5011437;28;20042;-76
2022/10/21 03:54:54;;;;;;;10.68;7.45;;;12.00;99.90;;;;;;5011159;28;20099;-74
2022/10/21 03:57:20;;;;;;;10.75;7.63;;;12.00;99.90;;;;;;5011020;28;20085;-76
2022/10/21 03:59:46;;;;;;;12.52;7.57;;;12.00;99.90;;;;;;5011089;28;20041;-75
2022/10/21 04:02:11;;;;;;;11.40;7.20;;;12.00;99.90;;;;;;5010097;28;20057;-75
2022/10/21 04:04:37;;;;;;;12.30;8.52;;;11.90;99.90;;;;;;5011185;28;20048;-77
2022/10/21 04:07:02;;;;;;;12.68;8.65;;;12.00;99.90;;;;;;5010807;28;20491;-78
2022/10/21 04:09:28;;;;;;;13.05;8.38;;;11.90;99.90;;;;;;5010013;28;20096;-75
2022/10/21 04:11:54;;;;;;;13.23;8.57;;;11.90;99.90;;;;;;5011235;28;20052;-76
2022/10/21 04:14:19;;;;;;;13.02;8.40;;;12.00;99.90;;;;;;5004675;28;20358;-76
2022/10/21 04:16:45;;;;;;;11.63;8.60;;;12.00;99.90;;;;;;4991557;28;20133;-72
2022/10/21 04:19:16;;;;;;;13.52;7.97;;;11.90;99.90;;;;;;4991708;28;20082;-75
2022/10/21 04:21:42;;;;;;;10.43;7.32;;;11.90;99.90;;;;;;4991596;28;20046;-74
2022/10/21 04:24:08;;;;;;;11.93;8.10;;;11.90;99.90;;;;;;4991818;28;20391;-76
2022/10/21 04:26:33;;;;;;;12.45;7.72;;;11.90;99.90;;;;;;5008942;28;20153;-76
2022/10/21 04:28:59;;;;;;;12.63;8.40;;;11.90;99.90;;;;;;5014809;28;20050;-78
2022/10/21 04:31:25;;;;;;;13.20;8.02;;;11.80;99.90;;;;;;5015219;28;20057;-76
2022/10/21 04:33:50;;;;;;;10.57;7.25;;;11.80;99.90;;;;;;5014905;28;20232;-76
2022/10/21 04:36:17;;;;;;;11.20;7.43;;;11.80;99.90;;;;;;5014674;28;20058;-76
2022/10/21 04:38:42;;;;;;;13.35;7.47;;;11.80;99.90;;;;;;5014704;28;20052;-76
2022/10/21 04:41:08;;;;;;;11.15;7.00;;;11.80;99.90;;;;;;5014747;28;20133;-77
2022/10/21 04:43:36;;;;;;;9.57;6.93;;;11.80;99.90;;;;;;5016020;28;20050;-77
2022/10/21 04:46:01;;;;;;;10.50;6.95;;;11.70;99.90;;;;;;5000732;28;20064;-76
2022/10/21 04:48:27;;;;;;;13.18;7.75;;;11.70;99.90;;;;;;5034069;28;20045;-78
2022/10/21 04:50:53;;;;;;;11.43;7.45;;;11.70;99.90;;;;;;5034280;28;20052;-77
2022/10/21 04:53:20;;;;;;;9.50;6.85;;;11.70;99.90;;;;;;5034176;28;20045;-76
2022/10/21 04:55:51;;;;;;;10.30;7.22;;;11.70;99.90;;;;;;5034102;28;20077;-76
2022/10/21 04:58:16;;;;;;;11.75;7.60;;;11.60;99.90;;;;;;5032621;28;20057;-76
2022/10/21 05:00:42;;;;;;;10.40;6.97;;;11.60;99.90;;;;;;5033827;28;20056;-77
2022/10/21 05:03:08;;;;;;;9.98;6.90;;;11.60;99.90;;;;;;5016429;28;20049;-76
2022/10/21 05:05:33;;;;;;;10.68;7.03;;;11.60;99.90;;;;;;5033577;28;20037;-76
2022/10/21 05:07:59;;;;;;;10.45;7.43;;;11.60;99.90;;;;;;5016369;28;20064;-76
2022/10/21 05:10:25;;;;;;;9.23;6.45;;;11.50;99.90;;;;;;5033993;28;20140;-78
2022/10/21 05:12:51;;;;;;;8.93;6.20;;;11.50;99.90;;;;;;5033866;28;20089;-75
2022/10/21 05:15:17;;;;;;;8.30;6.03;;;11.50;99.90;;;;;;5019767;28;20049;-77
2022/10/21 05:17:43;;;;;;;9.85;6.68;;;11.50;99.90;;;;;;5013670;28;20065;-75
2022/10/21 05:20:09;;;;;;;8.57;6.57;;;11.50;99.90;;;;;;4979772;28;20172;-74
2022/10/21 05:22:35;;;;;;;9.50;6.75;;;11.50;99.90;;;;;;5014007;28;20049;-76
2022/10/21 05:25:01;;;;;;;9.45;6.80;;;11.50;99.90;;;;;;5013741;28;20096;-77
2022/10/21 05:27:26;;;;;;;10.32;6.20;;;11.50;99.90;;;;;;5013554;28;20054;-76
2022/10/21 05:29:52;;;;;;;11.13;7.40;;;11.50;99.90;;;;;;5013672;28;20073;-76
2022/10/21 05:32:18;;;;;;;10.02;6.82;;;11.50;99.90;;;;;;5014026;28;20042;-75
2022/10/21 05:34:43;;;;;;;9.20;6.38;;;11.50;99.90;;;;;;5013515;28;20050;-76
2022/10/21 05:37:09;;;;;;;10.00;6.55;;;11.50;99.90;;;;;;5013577;28;20509;-75
2022/10/21 05:39:34;;;;;;;9.93;6.68;;;11.50;99.90;;;;;;5013623;28;20085;-75
2022/10/21 05:42:00;;;;;;;9.77;6.03;;;11.50;99.90;;;;;;5013546;28;20054;-75
2022/10/21 05:44:26;;;;;;;8.68;6.15;;;11.50;99.90;;;;;;5004910;28;20147;-75
2022/10/21 05:46:51;;;;;;;9.40;6.25;;;11.50;99.90;;;;;;5033078;28;20038;-75
2022/10/21 05:49:17;;;;;;;7.35;5.47;;;11.50;99.90;;;;;;5015679;28;20085;-75
2022/10/21 05:51:44;;;;;;;11.40;6.50;;;11.50;99.90;;;;;;5033096;28;20045;-75
2022/10/21 05:54:09;;;;;;;10.15;6.40;;;11.50;99.90;;;;;;5033128;28;20060;-75
2022/10/21 05:56:35;;;;;;;10.98;6.70;;;11.40;99.90;;;;;;5032495;28;20050;-76
2022/10/21 05:59:01;;;;;;;13.80;6.32;;;11.40;99.90;;;;;;5031630;28;20048;-75
2022/10/21 06:01:26;;;;;;;10.20;6.07;;;11.40;99.90;;;;;;5033020;28;20115;-75
2022/10/21 06:03:52;;;;;;;9.77;6.45;;;11.40;99.90;;;;;;5033323;28;20432;-75
2022/10/21 06:06:18;;;;;;;11.75;6.97;;;11.40;99.90;;;;;;5015367;28;20049;-75
2022/10/21 06:08:44;;;;;;;14.85;6.55;;;11.50;99.90;;;;;;5013136;28;20038;-76
2022/10/21 06:11:15;;;;;;;11.80;7.45;;;11.40;99.90;;;;;;4992657;28;20383;-81
2022/10/21 06:13:41;;;;;;;11.82;6.80;;;11.50;99.90;;;;;;5010776;28;20049;-79
2022/10/21 06:16:08;;;;;;;11.27;7.07;;;11.50;99.90;;;;;;5012061;28;20056;-80
2022/10/21 06:18:34;;;;;;;10.63;6.90;;;11.50;99.90;;;;;;5008097;28;20414;-75
2022/10/21 06:21:00;;;;;;;11.93;6.95;;;11.50;99.90;;;;;;5004107;28;20052;-75
2022/10/21 06:23:26;;;;;;;11.00;7.47;;;11.50;99.90;;;;;;5010880;28;20037;-75
2022/10/21 06:26:03;;;;;;;11.77;6.60;;;11.50;99.90;;;;;;5009822;28;20503;-75
2022/10/21 06:28:31;;;;;;;11.40;7.50;;;11.50;99.90;;;;;;5010769;28;20534;-75
2022/10/21 06:30:57;;;;;;;11.63;7.25;;;11.50;99.90;;;;;;5010976;28;20151;-75
2022/10/21 06:33:23;;;;;;;11.07;7.22;;;11.50;99.90;;;;;;5011970;28;20483;-75
2022/10/21 06:35:49;;;;;;;12.20;7.82;;;11.60;99.90;;;;;;5011807;28;20442;-75
2022/10/21 06:38:15;;;;;;;12.27;7.57;;;11.60;99.90;;;;;;5011553;28;20041;-74
2022/10/21 06:40:41;;;;;;;11.60;7.95;;;11.70;99.90;;;;;;5011826;28;20132;-74
2022/10/21 06:43:07;;;;;;;10.23;7.28;;;11.60;99.90;;;;;;4994821;28;20053;-74
2022/10/21 06:45:33;;;;;;;13.15;7.65;;;11.70;99.90;;;;;;5029892;28;20470;-75
2022/10/21 06:47:59;;;;;;;11.40;8.20;;;11.70;99.90;;;;;;5031462;28;20060;-75
2022/10/21 06:50:25;;;;;;;12.23;7.10;;;11.70;99.90;;;;;;5032082;28;20045;-74
2022/10/21 06:52:50;;;;;;;14.73;7.78;;;11.80;99.90;;;;;;5031865;28;20084;-74
2022/10/21 06:55:17;;;;;;;11.30;6.88;;;11.80;99.90;;;;;;5031797;28;20081;-74
2022/10/21 06:57:43;;;;;;;12.35;7.72;;;11.80;99.90;;;;;;5024806;28;20148;-74
2022/10/21 07:00:10;;;;;;;13.32;7.53;;;11.80;99.90;;;;;;5015059;28;20136;-74
2022/10/21 07:02:36;;;;;;;11.05;7.40;;;11.90;99.90;;;;;;5030979;28;20060;-73
2022/10/21 07:05:03;;;;;;;13.93;8.32;;;11.90;99.90;;;;;;5027619;28;20050;-73
2022/10/21 07:07:29;;;;;;;11.55;7.38;;;12.00;99.90;;;;;;5012021;28;20414;-74
2022/10/21 07:09:56;;;;;;;12.93;7.78;;;12.00;99.90;;;;;;4994458;28;20132;-73
2022/10/21 07:12:26;;;;;;;12.13;7.72;;;12.00;99.90;;;;;;5011585;28;20058;-74
2022/10/21 07:14:53;;;;;;;11.60;7.47;;;12.10;99.90;;;;;;5022009;28;20041;-74
2022/10/21 07:17:19;;;;;;;12.32;7.50;;;12.10;99.90;;;;;;5030904;28;20113;-74
2022/10/21 07:19:45;;;;;;;13.82;8.38;;;12.20;99.90;;;;;;5030974;28;20045;-75
2022/10/21 07:22:13;;;;;;;16.38;9.27;;;12.20;99.90;;;;;;5031256;28;20054;-76
2022/10/21 07:24:39;;;;;;;10.75;7.65;;;12.30;99.90;;;;;;4997220;28;20053;-75
2022/10/21 07:27:05;;;;;;;12.20;7.65;;;12.30;99.90;;;;;;5029454;28;20053;-76
2022/10/21 07:29:31;;;;;;;12.27;7.45;;;12.30;99.90;;;;;;5002188;28;20096;-75
2022/10/21 07:31:57;;;;;;;13.05;7.18;;;12.30;99.90;;;;;;5008295;28;20123;-75
2022/10/21 07:34:24;;;;;;;11.77;7.63;;;12.40;99.90;;;;;;5013298;28;20056;-75
2022/10/21 07:36:51;;;;;;;12.48;8.10;;;12.40;99.90;;;;;;5013697;28;20065;-76
2022/10/21 07:39:21;;;;;;;11.30;7.93;;;12.50;99.90;;;;;;5030244;28;20510;-75
2022/10/21 07:41:49;;;;;;;14.02;8.25;;;12.60;99.90;;;;;;5025021;28;20049;-76
2022/10/21 07:44:16;;;;;;;12.20;7.95;;;12.60;99.90;;;;;;5010924;28;20120;-76
2022/10/21 07:46:43;;;;;;;12.10;7.93;;;12.70;99.90;;;;;;5024516;28;20045;-76
2022/10/21 07:49:10;;;;;;;12.63;8.98;;;12.90;99.90;;;;;;5025665;28;20046;-76
2022/10/21 07:51:37;;;;;;;11.98;8.18;;;12.90;99.90;;;;;;5004273;28;20399;-78
2022/10/21 07:54:04;;;;;;;11.93;8.15;;;13.00;99.90;;;;;;4986110;28;20437;-76
2022/10/21 07:56:33;;;;;;;12.15;8.50;;;13.10;99.90;;;;;;4990892;28;20065;-76
2022/10/21 07:59:00;;;;;;;13.00;7.55;;;13.10;99.90;;;;;;5007469;28;20132;-81
2022/10/21 08:01:26;;;;;;;14.32;8.48;;;13.20;99.90;;;;;;5014795;28;20125;-77
2022/10/21 08:03:54;;;;;;;12.02;8.35;;;13.30;99.90;;;;;;5010831;28;20062;-72
2022/10/21 08:06:20;;;;;;;12.63;7.70;;;13.40;99.90;;;;;;5016546;28;20041;-73
2022/10/21 08:08:46;;;;;;;12.02;7.75;;;13.50;99.90;;;;;;5034867;28;20053;-72
2022/10/21 08:11:20;;;;;;;11.27;7.78;;;13.50;99.90;;;;;;5018924;28;20061;-73
2022/10/21 08:13:46;;;;;;;11.00;8.07;;;13.60;99.90;;;;;;5015886;28;20056;-72
2022/10/21 08:16:12;;;;;;;12.05;7.78;;;13.70;99.90;;;;;;5017063;28;20490;-72
2022/10/21 08:18:37;;;;;;;10.75;7.75;;;13.70;99.90;;;;;;5029149;28;20360;-73
2022/10/21 08:21:03;;;;;;;13.02;7.90;;;13.70;99.90;;;;;;5025033;28;20087;-73
2022/10/21 08:23:30;;;;;;;11.65;7.13;;;13.80;99.90;;;;;;5019634;28;20378;-72
2022/10/21 08:25:59;;;;;;;11.75;7.10;;;13.80;99.90;;;;;;5034518;28;20061;-73
2022/10/21 08:28:26;;;;;;;11.23;7.47;;;14.00;99.90;;;;;;5022688;28;21020;-73
2022/10/21 08:30:52;;;;;;;11.52;7.38;;;14.10;99.90;;;;;;5014749;28;20077;-73
2022/10/21 08:33:18;;;;;;;12.35;7.30;;;14.20;99.90;;;;;;5014463;28;20406;-72
2022/10/21 08:35:44;;;;;;;11.07;7.40;;;14.30;99.90;;;;;;4997051;28;20053;-73
2022/10/21 08:38:10;;;;;;;10.20;6.82;;;14.40;99.90;;;;;;5016379;28;20053;-73
2022/10/21 08:40:44;;;;;;;13.25;7.43;;;14.50;99.90;;;;;;5016723;28;20049;-73
2022/10/21 08:43:19;;;;;;;13.20;7.15;;;14.70;99.90;;;;;;5033566;28;20049;-73
2022/10/21 08:45:53;;;;;;;10.23;7.05;;;14.70;99.90;;;;;;5033920;28;20401;-77
2022/10/21 08:48:25;;;;;;;10.93;6.28;;;14.70;99.90;;;;;;4996456;28;20058;-76
2022/10/21 08:50:54;;;;;;;10.27;6.35;;;14.70;99.90;;;;;;5013936;28;20515;-77
2022/10/21 08:53:26;;;;;;;9.93;6.50;;;14.60;99.90;;;;;;5013834;28;20052;-67
2022/10/21 08:56:00;;;;;;;11.93;6.65;;;14.50;99.90;;;;;;5013424;28;20534;-67
2022/10/21 08:58:25;;;;;;;9.88;7.07;;;14.40;99.90;;;;;;5013062;28;20042;-67
2022/10/21 09:01:20;;;;;;;10.65;6.93;;;14.40;99.90;;;;;;5014132;28;20042;-67
2022/10/21 09:04:02;;;;;;;9.10;6.88;;;14.40;99.90;;;;;;5007620;28;20445;-66
2022/10/21 09:06:53;;;;;;;11.55;7.03;;;14.30;99.90;;;;;;5013522;28;20038;-65
2022/10/21 09:09:35;;;;;;;11.05;6.95;;;14.30;99.90;;;;;;4995450;28;20499;-66
2022/10/21 09:12:36;;;;;;;10.95;7.00;;;14.40;99.90;;;;;;4995466;28;20486;-66
2022/10/21 09:15:30;;;;;;;9.20;6.60;;;14.50;99.90;;;;;;5012649;28;20046;-67
2022/10/21 09:18:25;;;;;;;10.85;6.63;;;14.60;99.90;;;;;;5013327;28;20057;-67
2022/10/21 09:21:12;;;;;;;8.70;6.35;;;14.70;99.90;;;;;;5013396;28;20054;-66
2022/10/21 09:23:55;;;;;;;11.52;7.15;;;14.70;99.90;;;;;;5013571;28;20057;-66
2022/10/21 09:26:40;;;;;;;8.55;6.45;;;14.90;99.90;;;;;;5013381;28;20101;-66
2022/10/21 09:29:27;;;;;;;8.85;6.25;;;15.00;99.90;;;;;;5031494;28;20391;-65
2022/10/21 09:32:01;;;;;;;7.72;6.45;;;15.10;99.90;;;;;;5033338;28;20111;-65
2022/10/21 09:34:43;;;;;;;7.45;6.00;;;15.20;99.90;;;;;;5033167;28;20053;-65
2022/10/21 09:37:26;;;;;;;8.23;5.93;;;15.30;99.90;;;;;;5033034;28;20406;-66
2022/10/21 09:40:06;;;;;;;8.68;5.80;;;15.40;99.90;;;;;;5033001;28;20057;-65
2022/10/21 09:42:32;;;;;;;9.10;6.00;;;15.60;99.90;;;;;;5032663;28;20056;-66
2022/10/21 09:44:57;;;;;;;6.80;5.28;;;15.70;99.90;;;;;;5032771;28;20078;-66
2022/10/21 09:47:24;;;;;;;7.07;5.00;;;15.70;99.90;;;;;;5019464;28;20041;-66
2022/10/21 09:49:57;;;;;;;7.47;5.10;;;15.70;99.90;;;;;;5012633;28;20108;-66
2022/10/21 09:52:28;;;;;;;7.13;5.25;;;15.70;99.90;;;;;;5013281;28;20368;-66
2022/10/21 09:54:55;;;;;;;7.38;5.13;;;15.50;99.90;;;;;;5012987;28;20049;-67
2022/10/21 09:57:43;;;;;;;11.00;5.60;;;15.50;99.90;;;;;;5012104;28;20057;-67
2022/10/21 10:00:09;;;;;;;8.38;5.30;;;15.40;99.90;;;;;;5012826;28;20089;-66
2022/10/21 10:02:38;;;;;;;7.60;5.63;;;15.40;99.90;;;;;;5012770;28;20132;-66
2022/10/21 10:05:37;;;;;;;7.22;5.32;;;15.30;99.90;;;;;;5011210;28;20143;-66
2022/10/21 10:08:19;;;;;;;7.75;5.70;;;15.30;99.90;;;;;;5012895;28;20056;-67
2022/10/21 10:10:44;;;;;;;10.55;6.00;;;15.30;99.90;;;;;;5012237;28;20046;-67
2022/10/21 10:13:18;;;;;;;8.90;5.70;;;15.30;99.90;;;;;;5012367;28;20371;-67
2022/10/21 10:15:44;;;;;;;11.55;6.57;;;15.30;99.90;;;;;;5012202;28;20505;-67
2022/10/21 10:18:36;;;;;;;9.02;5.72;;;15.30;99.90;;;;;;5012474;28;20042;-67
2022/10/21 10:21:09;;;;;;;10.15;5.80;;;15.40;99.90;;;;;;5008869;28;20548;-67
2022/10/21 10:23:44;;;;;;;7.35;5.30;;;15.40;99.90;;;;;;5012633;28;20054;-66
2022/10/21 10:26:16;;;;;;;7.60;5.43;;;15.40;99.90;;;;;;5012355;28;20064;-67
2022/10/21 10:28:49;;;;;;;8.95;6.10;;;15.40;99.90;;;;;;5026421;28;20045;-66
2022/10/21 10:31:27;;;;;;;9.60;5.53;;;15.40;99.90;;;;;;5032514;28;20088;-65
2022/10/21 10:33:59;;;;;;;8.52;5.65;;;15.40;99.90;;;;;;5032154;28;20053;-65
2022/10/21 10:36:32;;;;;;;9.18;5.47;;;15.40;99.90;;;;;;5018492;28;20073;-65
2022/10/21 10:39:00;;;;;;;7.60;5.57;;;15.40;99.90;;;;;;5012412;28;20123;-65
2022/10/21 10:41:39;;;;;;;8.68;5.82;;;15.50;99.90;;;;;;5011718;28;20042;-65
2022/10/21 10:44:17;;;;;;;10.05;5.70;;;15.50;99.90;;;;;;5012031;28;20049;-64
2022/10/21 10:46:43;;;;;;;9.10;5.72;;;15.50;99.90;;;;;;4994429;28;20107;-65
2022/10/21 10:49:11;;;;;;;11.05;6.15;;;15.60;99.90;;;;;;5011852;28;20053;-64
2022/10/21 10:51:39;;;;;;;8.90;5.93;;;15.60;99.90;;;;;;5011708;28;20046;-65
2022/10/21 10:54:14;;;;;;;11.07;5.60;;;15.60;99.90;;;;;;5012035;28;20083;-65
2022/10/21 10:56:54;;;;;;;8.77;5.75;;;15.60;99.90;;;;;;5010838;28;20058;-64
2022/10/21 10:59:23;;;;;;;8.63;6.13;;;15.60;99.90;;;;;;5011042;28;20458;-65
2022/10/21 11:01:58;;;;;;;9.00;5.85;;;15.60;99.90;;;;;;5010758;28;20042;-66
2022/10/21 11:04:39;;;;;;;9.77;5.43;;;15.60;99.90;;;;;;5010469;28;20128;-65
2022/10/21 11:07:37;;;;;;;9.45;5.63;;;15.60;99.90;;;;;;5011671;28;20042;-66
2022/10/21 11:10:40;;;;;;;9.00;5.75;;;15.60;99.90;;;;;;5010217;28;20054;-66
2022/10/21 11:13:14;;;;;;;10.15;5.78;;;15.70;99.90;;;;;;5011006;28;20058;-66
2022/10/21 11:16:10;;;;;;;7.22;4.93;;;15.70;99.90;;;;;;5010999;28;20125;-66
2022/10/21 11:18:44;;;;;;;7.90;5.23;;;15.70;99.90;;;;;;5011519;28;20054;-65
2022/10/21 11:21:25;;;;;;;9.02;5.35;;;15.70;99.90;;;;;;5011482;28;20046;-65
2022/10/21 11:24:02;;;;;;;8.10;5.80;;;15.70;99.90;;;;;;5008164;28;20057;-66
2022/10/21 11:26:41;;;;;;;7.28;5.57;;;15.80;99.90;;;;;;4995126;28;20081;-65
2022/10/21 11:29:09;;;;;;;9.27;5.35;;;15.80;99.90;;;;;;5028011;28;20046;-66
2022/10/21 11:31:47;;;;;;;11.10;6.00;;;15.90;99.90;;;;;;5015801;28;20049;-65
2022/10/21 11:34:24;;;;;;;7.97;5.22;;;15.90;99.90;;;;;;5010509;28;20069;-66
2022/10/21 11:37:31;;;;;;;8.52;5.63;;;15.90;99.90;;;;;;5011175;28;20080;-67
2022/10/21 11:40:36;;;;;;;7.90;5.40;;;15.90;99.90;;;;;;4984888;28;20073;-66
2022/10/21 11:43:31;;;;;;;6.50;4.78;;;16.00;99.90;;;;;;5010344;28;20061;-66
2022/10/21 11:46:35;;;;;;;8.80;5.35;;;15.90;99.90;;;;;;4999018;28;20080;-66
2022/10/21 11:49:13;;;;;;;8.45;5.50;;;16.00;99.90;;;;;;5007900;28;20133;-67
2022/10/21 11:52:06;;;;;;;10.93;5.75;;;16.00;99.90;;;;;;5010000;28;20054;-66
2022/10/21 11:55:02;;;;;;;8.65;5.15;;;16.00;99.90;;;;;;5024804;28;20045;-66
2022/10/21 11:57:34;;;;;;;9.38;5.10;;;16.00;99.90;;;;;;5010018;28;20160;-66
2022/10/21 12:00:08;;;;;;;7.93;5.30;;;16.00;99.90;;;;;;5010477;28;20057;-66
2022/10/21 12:02:40;;;;;;;6.90;4.80;;;16.10;99.90;;;;;;5010378;28;20049;-66
2022/10/21 12:05:24;;;;;;;7.28;4.35;;;16.10;99.90;;;;;;5011063;28;20064;-66
2022/10/21 12:07:50;;;;;;;7.22;4.32;;;16.10;99.90;;;;;;4993467;28;20372;-66
2022/10/21 12:10:36;;;;;;;8.55;4.50;;;16.20;99.90;;;;;;5010556;28;20057;-67
2022/10/21 12:13:26;;;;;;;6.75;4.30;;;16.20;99.90;;;;;;4977160;28;20054;-66
2022/10/21 12:15:57;;;;;;;7.63;5.22;;;16.20;99.90;;;;;;5027942;28;20576;-66
2022/10/21 12:18:25;;;;;;;6.43;4.10;;;16.30;99.90;;;;;;5030628;28;20124;-66
2022/10/21 12:20:53;;;;;;;7.28;4.32;;;16.20;99.90;;;;;;5011628;28;20050;-67
2022/10/21 12:23:22;;;;;;;8.98;3.83;;;16.30;99.90;;;;;;5010640;28;20119;-66
2022/10/21 12:26:17;;;;;;;5.30;3.83;;;16.30;99.90;;;;;;5006081;28;20051;-66
2022/10/21 12:29:01;;;;;;;5.60;4.13;;;16.30;99.90;;;;;;5005547;28;20050;-66
2022/10/21 12:31:44;;;;;;;6.50;4.03;;;16.30;99.90;;;;;;5010493;28;20093;-66
2022/10/21 12:34:11;;;;;;;6.38;3.92;;;16.40;99.90;;;;;;5011068;28;20050;-67
2022/10/21 12:36:50;;;;;;;8.02;4.10;;;16.40;99.90;;;;;;5009378;28;20050;-67
2022/10/21 12:39:49;;;;;;;5.93;4.03;;;16.40;99.90;;;;;;5010515;28;20570;-67
2022/10/21 12:42:16;;;;;;;5.47;3.80;;;16.40;99.90;;;;;;5010806;28;20053;-67
2022/10/21 12:44:47;;;;;;;5.82;4.00;;;16.40;99.90;;;;;;5010032;28;20045;-67
2022/10/21 12:47:30;;;;;;;6.30;4.45;;;16.50;99.90;;;;;;5014024;28;20053;-66
2022/10/21 12:50:05;;;;;;;6.28;4.55;;;16.50;99.90;;;;;;5014341;28;20081;-67
2022/10/21 12:52:37;;;;;;;5.80;4.25;;;16.50;99.90;;;;;;5014360;28;20085;-66
2022/10/21 12:55:06;;;;;;;6.43;4.28;;;16.50;99.90;;;;;;5014176;28;20058;-66
2022/10/21 12:57:38;;;;;;;4.90;3.92;;;16.50;99.90;;;;;;5013757;28;20058;-67
2022/10/21 13:00:22;;;;;;;6.40;4.40;;;16.50;99.90;;;;;;5013788;28;20054;-66
2022/10/21 13:02:58;;;;;;;5.93;4.30;;;16.50;99.90;;;;;;5013722;28;20046;-66